Nickwechsel als Bild für Dein Profil

Nickwechsel

alter Name neuer Name + Detailseite Welt Profil Zeitpunkt
1 Grindelwald Camora ActionFreewar 278 am 24.06.2017 um 12:35:05
2 SirSmokealot Maxwell ActionFreewar 277 am 24.06.2017 um 12:35:05
3 yukichan Flo ActionFreewar 276 am 24.06.2017 um 11:55:05
4 Silvar xCraft__ ActionFreewar 275 am 24.06.2017 um 11:15:06
5 Ambianta One1 Welt 1 11619 am 24.06.2017 um 10:05:02
6 nyffigame Klickweidaaa Welt 10 2447 am 24.06.2017 um 04:05:03
7 pataYa Clown ActionFreewar 274 am 24.06.2017 um 03:05:05
8 Hidan1996 Heiko Welt 3 2713 am 23.06.2017 um 23:45:02
9 Autsch Marc99 Welt 3 2712 am 23.06.2017 um 23:45:02
10 Vanir tot5000 Welt 3 2707 am 23.06.2017 um 23:25:02
11 BigGlou ExcuseMe ActionFreewar 273 am 23.06.2017 um 21:55:25
12 Firsen Angel67 ActionFreewar 272 am 23.06.2017 um 16:55:05
13 ignis TheScorpionKing ActionFreewar 271 am 23.06.2017 um 11:25:05
14 ChaosQueen16x Darvanshel Welt 13 3147 am 23.06.2017 um 10:25:04
15 mane118 Graskind Welt 10 2446 am 23.06.2017 um 09:05:03
16 Kaaarl Graskind Welt 1 11615 am 23.06.2017 um 08:55:01
17 Shanks BirthdayMassacre Welt 7 2815 am 23.06.2017 um 08:25:02
18 Erdbeermarmelade Darmspiegelung ActionFreewar 270 am 23.06.2017 um 08:05:05
19 ignisquisvir Shino ActionFreewar 269 am 23.06.2017 um 01:05:05
20 Schotterwurm_Meister Methusalix Welt 12 3748 am 22.06.2017 um 22:45:04
21 Methusalix Schotterwurm_Meister Welt 12 3748 am 22.06.2017 um 22:05:04
22 -Skyfarmer- Olaf Kaspriki Welt 11 103186 am 22.06.2017 um 18:25:04
23 Fezzahr Murx Welt 1 11613 am 22.06.2017 um 10:25:01
24 Ryok revolver Helmchen Welt 7 2813 am 22.06.2017 um 09:25:03
25 Totengräber McBratpfanne Welt 1 11612 am 22.06.2017 um 09:05:02
26 Adiconco Xtra ActionFreewar 268 am 22.06.2017 um 08:05:05
27 Todesjockel Raizou Welt 10 2847 am 22.06.2017 um 08:05:04
28 Madara Uchiha Arakune Welt 14 7217 am 22.06.2017 um 03:25:03
29 Silva HUNDELANDDE ActionFreewar 267 am 21.06.2017 um 23:35:04
30 Dishonesty HDF DE ActionFreewar 266 am 21.06.2017 um 23:35:04
31 Ana EYDEUTSCHER-BRRR ActionFreewar 265 am 21.06.2017 um 23:35:04
32 Elgolass adolf hitlereurerdad ActionFreewar 264 am 21.06.2017 um 23:35:04
33 Shakyor warheittutwehhuso ActionFreewar 263 am 21.06.2017 um 23:35:04
34 noobzilla ichfickemutterr ActionFreewar 262 am 21.06.2017 um 23:35:04
35 New Order ihr hurensohn de ActionFreewar 261 am 21.06.2017 um 23:35:04
36 XXX ERDDOGGANNn ActionFreewar 260 am 21.06.2017 um 23:15:04
37 mango TAYYIPP ActionFreewar 259 am 21.06.2017 um 23:15:04
38 Hellfire ERDOGAN ActionFreewar 258 am 21.06.2017 um 23:15:04
39 guschtl TAYYIP ActionFreewar 257 am 21.06.2017 um 23:15:04
40 Terry RECEP ActionFreewar 256 am 21.06.2017 um 23:15:04
41 Jatu ERDDOGGANN ActionFreewar 255 am 21.06.2017 um 23:15:04
42 GOTTMODUZ Chambers Welt 9 2163 am 21.06.2017 um 23:15:02
43 Vagabund kezban ActionFreewar 254 am 21.06.2017 um 22:35:06
44 F-Hoernchen rotterdam ActionFreewar 253 am 21.06.2017 um 22:15:06
45 Toasty Shion Welt 3 2705 am 21.06.2017 um 17:05:02
46 muschi möschi Welt 7 573 am 21.06.2017 um 14:45:03
47 AlphaMan Erdbeere Welt 7 2810 am 21.06.2017 um 12:55:03
48 Jeszuz WickMediNait ActionFreewar 252 am 21.06.2017 um 01:25:04
49 Lucky Tongo Ben Khan Welt 1 105108 am 21.06.2017 um 00:55:01
50 2fast4u Mondkind Welt 8 2157 am 20.06.2017 um 21:35:03
51 möschi muschi Welt 7 573 am 20.06.2017 um 20:45:02
52 Sophiera Sophiera Welt 3 51887 am 20.06.2017 um 17:45:02
53 Porsche Golden Age ActionFreewar 250 am 20.06.2017 um 16:45:06
54 netter Typ No Welt 1 550 am 20.06.2017 um 15:55:01
55 Aguar Hannah Baker Welt 14 7215 am 20.06.2017 um 14:25:05
56 Schmiede Wildwilder Welt 7 2808 am 20.06.2017 um 10:35:03
57 gurki wilderwild Welt 7 2806 am 20.06.2017 um 10:35:03
58 dumbo Honeyhoney Welt 1 11603 am 20.06.2017 um 10:35:02
59 Bluberberbernd Winkelried1291 Welt 1 11602 am 20.06.2017 um 10:15:01
60 Celra WTFAQ Welt 5 2643 am 20.06.2017 um 09:35:03
61 Dr Jockel ilidrion Welt 10 2675 am 20.06.2017 um 08:55:03
62 grünes Auto Fatalis Welt 1 107148 am 19.06.2017 um 15:45:02
63 Son Mongo grünes Auto Welt 1 107148 am 19.06.2017 um 15:25:02
64 Tobele123 Warzenwasser Welt 1 11600 am 19.06.2017 um 14:45:02
65 Papabär Alter Papabär Welt 2 51741 am 19.06.2017 um 10:45:02
66 Resting Bitch Face netter Typ Welt 1 550 am 19.06.2017 um 10:45:02
67 MiezeKatz Minka Welt 1 10695 am 19.06.2017 um 09:25:02
68 RyUdO Cruiser ActionFreewar 249 am 19.06.2017 um 04:45:05
69 Whitefang JJRA Welt 2 2979 am 18.06.2017 um 18:05:02
70 Peace Mura ActionFreewar 248 am 18.06.2017 um 16:05:06
71 Yin Gurallu Welt 4 2561 am 18.06.2017 um 15:55:02
72 Deeps_Knecht Mura Welt 1 11598 am 18.06.2017 um 15:25:02
73 Charlie Harper NVSgoesW1 Welt 1 11597 am 18.06.2017 um 14:15:02
74 tiro NVSgoesW1 Welt 8 2151 am 18.06.2017 um 14:05:03
75 Wühlmaus Nyx Welt 7 2565 am 18.06.2017 um 13:05:03
76 La Askima Helmchen Welt 1 105528 am 18.06.2017 um 12:45:02
77 Vos Rikudou Sennin Welt 1 13167 am 18.06.2017 um 12:15:02
78 SirroCool Halo i bims Welt 1 11596 am 18.06.2017 um 11:55:02
79 ZuckErguss Resting Bitch Face Welt 1 550 am 18.06.2017 um 11:15:02
80 Night Ravishe ActionFreewar 246 am 18.06.2017 um 10:15:04
81 Dark King Somfy ActionFreewar 245 am 18.06.2017 um 09:55:05
82 Tizi Emi Farore World 1 14580 am 18.06.2017 um 09:45:04
83 brOKen Mnoleg Welt 12 6690 am 18.06.2017 um 08:35:04
84 ganz liebes Bärchen Enis Liebesbärchen Welt 1 11594 am 17.06.2017 um 22:35:02
85 Marie Joana Flausch ActionFreewar 243 am 17.06.2017 um 21:15:05
86 7Fing3r Bert ActionFreewar 241 am 17.06.2017 um 18:55:05
87 Asphalys leafy AND 6305=6305-- xjtt Welt 14 7209 am 17.06.2017 um 18:55:04
88 Ajhad leafy AND 6305=6305 Welt 14 7207 am 17.06.2017 um 18:55:04
89 8Fing3r Hallo ActionFreewar 240 am 17.06.2017 um 17:55:05
90 Pillath Schiefi ActionFreewar 239 am 17.06.2017 um 15:45:06
91 Rocket Raccoon BioToxic Welt 11 5602 am 17.06.2017 um 13:45:03
92 cindy1527 Viktoria178 Welt 1 11593 am 17.06.2017 um 12:45:01
93 VY Canis Majoris Napoleon Bonaparte Welt 1 107028 am 17.06.2017 um 12:25:02
94 Limmp Luzifer ActionFreewar 238 am 17.06.2017 um 10:35:05
95 pussi Benedictus Welt 1 11589 am 17.06.2017 um 10:25:01
96 Edorian Baldin mylou5 ActionFreewar 237 am 17.06.2017 um 06:25:05
97 alkoholiker w1 SleepAngel ActionFreewar 236 am 17.06.2017 um 06:25:05
98 QueenMary Honolulu Welt 5 2638 am 17.06.2017 um 05:35:02
99 Roflcopter Chlöpfer Welt 1 8360 am 17.06.2017 um 05:15:01
100 PateFix Lyrus Welt 5 1259 am 16.06.2017 um 23:05:03